Time;durP1;ratioP1;P1;durP2;ratioP2;P2;SDS_P1;SDS_P2;PMS_P1;PMS_P2;Temp;Humidity;BMP_temperature;BMP_pressure;BME280_temperature;BME280_humidity;BME280_pressure;Samples;Min_cycle;Max_cycle;Signal;HPM_P1;HPM_P2
2021/07/25 00:00:07;;;;;;;13.03;11.80;;;25.60;73.20;;;;;;5106959;28;20665;-61
2021/07/25 00:02:35;;;;;;;18.10;13.60;;;25.60;73.00;;;;;;5100732;28;20464;-62
2021/07/25 00:05:02;;;;;;;13.23;12.07;;;25.60;73.00;;;;;;5105997;27;20853;-63
2021/07/25 00:07:30;;;;;;;14.43;13.23;;;25.60;73.00;;;;;;5105111;28;20533;-61
2021/07/25 00:09:57;;;;;;;14.20;12.83;;;25.50;72.90;;;;;;5103052;28;20783;-61
2021/07/25 00:12:24;;;;;;;14.03;12.83;;;25.50;73.00;;;;;;5106587;28;20462;-62
2021/07/25 00:14:51;;;;;;;13.20;12.00;;;25.50;72.90;;;;;;5108259;28;20830;-61
2021/07/25 00:17:18;;;;;;;13.30;12.10;;;25.50;73.00;;;;;;5110596;28;20958;-61
2021/07/25 00:19:45;;;;;;;12.90;11.70;;;25.50;73.10;;;;;;5102106;28;20502;-61
2021/07/25 00:22:13;;;;;;;13.50;12.23;;;25.50;73.00;;;;;;5106154;28;20484;-61
2021/07/25 00:24:49;;;;;;;12.03;10.93;;;25.50;73.00;;;;;;5103632;28;20559;-62
2021/07/25 00:27:16;;;;;;;12.97;11.97;;;25.40;73.10;;;;;;5106702;28;20851;-62
2021/07/25 00:29:43;;;;;;;14.33;13.03;;;25.30;73.20;;;;;;5102916;28;20473;-62
2021/07/25 00:32:10;;;;;;;13.47;12.27;;;25.40;73.30;;;;;;5108438;28;20557;-62
2021/07/25 00:34:37;;;;;;;13.00;11.80;;;25.30;73.30;;;;;;5113751;28;20468;-62
2021/07/25 00:37:04;;;;;;;13.07;11.93;;;25.40;73.40;;;;;;5113410;27;20988;-59
2021/07/25 00:39:31;;;;;;;14.70;13.27;;;25.40;73.50;;;;;;5103912;28;21274;-60
2021/07/25 00:41:59;;;;;;;15.20;13.80;;;25.30;73.50;;;;;;5109473;28;20804;-60
2021/07/25 00:44:26;;;;;;;14.67;13.20;;;25.20;73.60;;;;;;5107841;27;20456;-60
2021/07/25 00:46:59;;;;;;;15.97;14.30;;;25.20;73.40;;;;;;5110816;28;20472;-61
2021/07/25 00:49:27;;;;;;;12.60;11.50;;;25.20;73.40;;;;;;5114188;27;20898;-61
2021/07/25 00:51:54;;;;;;;14.37;13.00;;;25.20;73.50;;;;;;5111362;28;20468;-60
2021/07/25 00:54:21;;;;;;;13.60;12.40;;;25.20;73.50;;;;;;5100745;28;20465;-61
2021/07/25 00:56:48;;;;;;;13.80;12.53;;;25.20;73.70;;;;;;5110065;28;20510;-60
2021/07/25 00:59:17;;;;;;;13.90;12.60;;;25.20;73.70;;;;;;5113396;28;20534;-61
2021/07/25 01:01:44;;;;;;;14.07;12.67;;;25.10;73.50;;;;;;5095615;28;20453;-61
2021/07/25 01:04:19;;;;;;;13.27;12.13;;;25.10;73.60;;;;;;5108556;28;20469;-60
2021/07/25 01:06:58;;;;;;;13.10;12.00;;;25.00;73.90;;;;;;5115366;28;20529;-61
2021/07/25 01:09:37;;;;;;;14.33;13.07;;;25.00;74.20;;;;;;5107560;28;20480;-60
2021/07/25 01:12:07;;;;;;;15.53;14.03;;;24.90;75.20;;;;;;5114661;27;20537;-61
2021/07/25 01:14:36;;;;;;;14.27;13.07;;;24.80;74.40;;;;;;5104222;28;20529;-60
2021/07/25 01:17:26;;;;;;;14.20;12.97;;;24.80;74.60;;;;;;5111832;28;20559;-61
2021/07/25 01:19:54;;;;;;;13.17;11.97;;;24.80;74.70;;;;;;5099069;28;20536;-60
2021/07/25 01:22:21;;;;;;;12.90;11.73;;;24.80;75.00;;;;;;5110510;28;20612;-61
2021/07/25 01:24:49;;;;;;;14.23;12.90;;;24.80;75.10;;;;;;5114683;27;20467;-60
2021/07/25 01:27:22;;;;;;;15.27;13.93;;;24.70;75.30;;;;;;5114415;27;20445;-60
2021/07/25 01:29:51;;;;;;;13.90;12.50;;;24.70;75.60;;;;;;5108826;27;20946;-60
2021/07/25 01:32:19;;;;;;;12.40;11.23;;;24.70;75.60;;;;;;5103598;27;20551;-60
2021/07/25 01:34:47;;;;;;;12.83;11.80;;;24.70;75.50;;;;;;5104479;28;20481;-61
2021/07/25 01:37:17;;;;;;;13.83;12.43;;;24.70;75.60;;;;;;5113405;28;20556;-61
2021/07/25 01:39:44;;;;;;;13.70;12.50;;;24.70;75.70;;;;;;5111786;28;20518;-61
2021/07/25 01:42:11;;;;;;;12.33;11.20;;;24.70;75.80;;;;;;5108063;27;20472;-61
2021/07/25 01:44:38;;;;;;;13.90;12.60;;;24.60;75.60;;;;;;5107764;27;20480;-61
2021/07/25 01:47:05;;;;;;;13.40;12.20;;;24.70;75.80;;;;;;5110073;28;20480;-61
2021/07/25 01:49:32;;;;;;;15.03;13.53;;;24.60;75.80;;;;;;5110721;28;20486;-61
2021/07/25 01:51:59;;;;;;;14.73;13.33;;;24.60;76.00;;;;;;5111993;28;20472;-61
2021/07/25 01:54:27;;;;;;;14.57;13.27;;;24.60;76.10;;;;;;5100366;27;20526;-61
2021/07/25 01:56:54;;;;;;;14.10;12.70;;;24.60;76.30;;;;;;5109127;27;20503;-61
2021/07/25 01:59:21;;;;;;;13.33;12.07;;;24.50;76.10;;;;;;5110636;28;20533;-61
2021/07/25 02:01:47;;;;;;;12.60;11.30;;;24.50;76.30;;;;;;5113000;28;20517;-61
2021/07/25 02:04:14;;;;;;;14.17;12.87;;;24.50;76.30;;;;;;5113162;27;20469;-61
2021/07/25 02:06:41;;;;;;;13.13;11.97;;;24.50;76.20;;;;;;5102214;28;20857;-60
2021/07/25 02:09:12;;;;;;;14.63;13.23;;;24.50;76.30;;;;;;5109364;28;20473;-61
2021/07/25 02:11:40;;;;;;;14.90;13.43;;;24.50;76.30;;;;;;5113619;28;20859;-61
2021/07/25 02:14:08;;;;;;;12.70;11.60;;;24.50;76.50;;;;;;5103216;28;20533;-61
2021/07/25 02:16:36;;;;;;;13.07;11.90;;;24.40;76.40;;;;;;5112895;28;20482;-61
2021/07/25 02:19:03;;;;;;;14.23;12.97;;;24.40;76.50;;;;;;5112979;27;20547;-61
2021/07/25 02:21:30;;;;;;;13.70;12.50;;;24.40;76.70;;;;;;5109332;27;20989;-61
2021/07/25 02:23:57;;;;;;;14.03;12.73;;;24.40;76.60;;;;;;5108768;28;21014;-62
2021/07/25 02:26:24;;;;;;;14.77;13.40;;;24.30;76.50;;;;;;5113430;27;20533;-62
2021/07/25 02:28:52;;;;;;;14.10;12.70;;;24.40;76.80;;;;;;5099684;28;20468;-61
2021/07/25 02:31:19;;;;;;;14.53;13.13;;;24.30;76.80;;;;;;5107891;28;20780;-61
2021/07/25 02:33:46;;;;;;;13.40;12.27;;;24.20;77.10;;;;;;5097440;28;20526;-61
2021/07/25 02:36:13;;;;;;;15.40;13.67;;;24.20;77.10;;;;;;5106334;28;20954;-61
2021/07/25 02:38:40;;;;;;;15.47;13.83;;;24.20;77.20;;;;;;5108701;28;20476;-61
2021/07/25 02:41:07;;;;;;;14.80;13.40;;;24.20;77.30;;;;;;5099224;28;20519;-60
2021/07/25 02:43:34;;;;;;;13.90;12.50;;;24.10;77.40;;;;;;5108249;28;20779;-61
2021/07/25 02:46:02;;;;;;;15.10;13.70;;;24.10;77.70;;;;;;5108676;27;20966;-60
2021/07/25 02:48:29;;;;;;;18.87;14.20;;;24.10;77.80;;;;;;5101669;28;20859;-61
2021/07/25 02:50:58;;;;;;;15.03;13.50;;;24.10;77.90;;;;;;5104832;28;20861;-60
2021/07/25 02:53:25;;;;;;;14.40;13.10;;;24.10;78.10;;;;;;5112706;28;20449;-61
2021/07/25 02:55:52;;;;;;;14.37;13.10;;;24.00;78.30;;;;;;5106757;28;20539;-62
2021/07/25 02:58:19;;;;;;;14.10;12.80;;;24.00;78.50;;;;;;5111554;28;20506;-61
2021/07/25 03:00:47;;;;;;;15.70;14.23;;;24.00;78.70;;;;;;5112076;28;20977;-61
2021/07/25 03:03:15;;;;;;;14.83;13.33;;;24.00;78.70;;;;;;5112742;28;20537;-61
2021/07/25 03:05:42;;;;;;;13.80;12.40;;;24.00;78.90;;;;;;5110846;28;20521;-61
2021/07/25 03:08:09;;;;;;;13.97;12.57;;;24.00;78.90;;;;;;5106498;28;20525;-61
2021/07/25 03:10:36;;;;;;;14.97;13.60;;;24.00;79.10;;;;;;5108210;28;20832;-61
2021/07/25 03:13:03;;;;;;;14.03;12.73;;;24.00;79.20;;;;;;5110774;27;20468;-61
2021/07/25 03:15:30;;;;;;;14.57;13.27;;;24.00;79.30;;;;;;5098738;28;20469;-61
2021/07/25 03:17:57;;;;;;;13.20;11.93;;;23.90;79.30;;;;;;5105896;28;20817;-61
2021/07/25 03:20:26;;;;;;;14.40;13.00;;;23.90;79.50;;;;;;5101343;28;20457;-61
2021/07/25 03:22:53;;;;;;;15.13;13.80;;;23.90;79.70;;;;;;5106530;28;20460;-61
2021/07/25 03:25:20;;;;;;;13.90;12.50;;;23.90;79.80;;;;;;5102638;28;20530;-60
2021/07/25 03:27:47;;;;;;;13.60;12.50;;;23.90;80.00;;;;;;5106059;28;20997;-60
2021/07/25 03:30:14;;;;;;;14.70;13.37;;;23.90;80.10;;;;;;5109699;28;20528;-61
2021/07/25 03:32:41;;;;;;;13.83;12.53;;;23.90;80.20;;;;;;5098941;28;20460;-61
2021/07/25 03:35:09;;;;;;;13.70;12.40;;;23.90;80.30;;;;;;5106000;28;20468;-61
2021/07/25 03:37:43;;;;;;;14.70;13.40;;;23.90;80.50;;;;;;5108559;28;20527;-61
2021/07/25 03:40:11;;;;;;;15.30;13.60;;;23.90;80.80;;;;;;5103933;28;20463;-61
2021/07/25 03:42:39;;;;;;;15.40;13.93;;;23.80;80.80;;;;;;5106352;28;20457;-61
2021/07/25 03:45:07;;;;;;;16.23;14.83;;;23.80;81.20;;;;;;5112337;28;20464;-60
2021/07/25 03:47:34;;;;;;;16.13;14.60;;;23.80;81.40;;;;;;5105747;28;20518;-61
2021/07/25 03:50:01;;;;;;;15.67;14.03;;;23.70;81.50;;;;;;5111039;28;20476;-61
2021/07/25 03:52:28;;;;;;;16.43;13.47;;;23.80;81.90;;;;;;5105892;28;20958;-62
2021/07/25 03:54:56;;;;;;;14.67;13.07;;;23.70;81.90;;;;;;5111389;28;20540;-61
2021/07/25 03:57:23;;;;;;;15.80;14.40;;;23.70;82.20;;;;;;5095186;28;21012;-61
2021/07/25 03:59:50;;;;;;;15.57;14.20;;;23.70;82.40;;;;;;5101834;28;20518;-61
2021/07/25 04:02:17;;;;;;;15.80;13.50;;;23.70;82.70;;;;;;5115738;28;21170;-62
2021/07/25 04:04:43;;;;;;;16.00;14.53;;;23.70;83.00;;;;;;5113090;28;20461;-61
2021/07/25 04:07:10;;;;;;;15.47;13.97;;;23.70;83.30;;;;;;5116066;28;20517;-61
2021/07/25 04:09:37;;;;;;;15.80;14.40;;;23.70;83.40;;;;;;5109739;28;20954;-62
2021/07/25 04:12:06;;;;;;;15.13;13.63;;;23.60;83.70;;;;;;5115498;28;20476;-61
2021/07/25 04:14:33;;;;;;;15.03;13.43;;;23.60;84.10;;;;;;5103964;28;20449;-61
2021/07/25 04:17:00;;;;;;;15.83;14.33;;;23.50;84.30;;;;;;5108810;27;20468;-61
2021/07/25 04:19:28;;;;;;;15.70;14.20;;;23.50;84.60;;;;;;5101718;28;20477;-61
2021/07/25 04:21:55;;;;;;;17.43;14.60;;;23.50;84.70;;;;;;5109759;28;20540;-61
2021/07/25 04:24:22;;;;;;;16.03;14.57;;;23.50;85.10;;;;;;5113246;28;21017;-61
2021/07/25 04:26:49;;;;;;;15.10;13.70;;;23.40;85.10;;;;;;5104944;28;21022;-61
2021/07/25 04:29:18;;;;;;;15.23;13.73;;;23.40;85.30;;;;;;5108828;27;20846;-61
2021/07/25 04:31:46;;;;;;;13.93;12.77;;;23.40;85.60;;;;;;5106358;27;20938;-61
2021/07/25 04:34:13;;;;;;;15.10;13.50;;;23.40;85.60;;;;;;5108613;28;20470;-61
2021/07/25 04:36:42;;;;;;;15.40;13.80;;;23.40;86.00;;;;;;5105455;27;20468;-61
2021/07/25 04:39:10;;;;;;;15.20;13.80;;;23.40;86.10;;;;;;5113063;27;20472;-61
2021/07/25 04:41:41;;;;;;;17.10;15.30;;;23.40;86.30;;;;;;5108696;28;20457;-61
2021/07/25 04:44:15;;;;;;;19.63;17.57;;;23.50;86.30;;;;;;5115666;28;20544;-62
2021/07/25 04:46:47;;;;;;;16.77;15.00;;;23.40;86.30;;;;;;5110102;28;20537;-62
2021/07/25 04:49:16;;;;;;;15.20;13.77;;;23.50;86.30;;;;;;5113894;28;21027;-61
2021/07/25 04:51:45;;;;;;;15.70;14.20;;;23.60;86.40;;;;;;5114878;27;20517;-60
2021/07/25 04:54:14;;;;;;;15.00;13.60;;;23.60;86.40;;;;;;5114515;27;20529;-61
2021/07/25 04:56:56;;;;;;;16.77;14.70;;;23.60;86.70;;;;;;5113413;27;20517;-61
2021/07/25 04:59:28;;;;;;;15.03;13.53;;;23.50;86.60;;;;;;5114687;27;20471;-61
2021/07/25 05:02:00;;;;;;;17.87;13.30;;;23.50;86.50;;;;;;5115766;27;20460;-60
2021/07/25 05:04:28;;;;;;;15.77;14.17;;;23.50;86.60;;;;;;5114980;27;20517;-60
2021/07/25 05:06:56;;;;;;;16.70;15.10;;;23.50;86.80;;;;;;5115490;27;20540;-60
2021/07/25 05:09:24;;;;;;;15.23;13.83;;;23.40;87.00;;;;;;5115047;27;20468;-61
2021/07/25 05:11:54;;;;;;;16.40;14.13;;;23.40;87.60;;;;;;5114704;27;20879;-60
2021/07/25 05:14:26;;;;;;;15.13;13.63;;;23.40;87.60;;;;;;5114923;27;20556;-59
2021/07/25 05:17:03;;;;;;;16.00;14.30;;;23.40;87.60;;;;;;5115446;27;20540;-60
2021/07/25 05:19:41;;;;;;;15.03;13.60;;;23.40;87.70;;;;;;5114831;27;20472;-59
2021/07/25 05:22:21;;;;;;;14.53;13.13;;;23.40;87.70;;;;;;5115185;27;20543;-59
2021/07/25 05:24:51;;;;;;;16.17;14.77;;;23.40;87.80;;;;;;5114910;27;20456;-60
2021/07/25 05:27:20;;;;;;;14.07;12.67;;;23.50;87.90;;;;;;5115100;27;20522;-60
2021/07/25 05:29:48;;;;;;;13.73;12.57;;;23.50;87.90;;;;;;5114669;27;20535;-60
2021/07/25 05:32:19;;;;;;;15.67;14.27;;;23.50;87.90;;;;;;5114877;27;20469;-60
2021/07/25 05:34:46;;;;;;;15.50;14.23;;;23.50;88.00;;;;;;5114412;27;20463;-60
2021/07/25 05:37:13;;;;;;;14.33;12.83;;;23.50;87.90;;;;;;5115083;27;20521;-62
2021/07/25 05:39:40;;;;;;;13.50;12.30;;;23.60;88.10;;;;;;5114496;27;20472;-62
2021/07/25 05:42:07;;;;;;;16.70;13.70;;;23.70;88.90;;;;;;5114596;27;20469;-61
2021/07/25 05:44:34;;;;;;;15.23;13.63;;;23.70;88.30;;;;;;5114391;27;20461;-61
2021/07/25 05:47:01;;;;;;;14.20;13.00;;;23.70;88.30;;;;;;5114669;27;20472;-61
2021/07/25 05:49:29;;;;;;;15.20;13.77;;;23.70;88.50;;;;;;5114103;27;20480;-61
2021/07/25 05:51:56;;;;;;;14.03;12.60;;;23.70;88.50;;;;;;5114579;27;20464;-62
2021/07/25 05:54:23;;;;;;;15.60;14.00;;;23.80;88.50;;;;;;5114512;27;20962;-62
2021/07/25 05:56:50;;;;;;;15.93;14.37;;;23.90;88.20;;;;;;5114165;27;20509;-62
2021/07/25 05:59:17;;;;;;;15.60;14.10;;;24.00;88.20;;;;;;5114333;27;20476;-62
2021/07/25 06:01:45;;;;;;;14.83;13.37;;;24.00;88.20;;;;;;5114109;27;20547;-62
2021/07/25 06:04:12;;;;;;;14.77;13.43;;;24.10;88.10;;;;;;5114145;27;20468;-62
2021/07/25 06:06:40;;;;;;;15.67;14.07;;;24.20;87.60;;;;;;5113878;27;20833;-62
2021/07/25 06:09:07;;;;;;;14.47;13.27;;;24.20;87.90;;;;;;5113981;27;20465;-62
2021/07/25 06:11:35;;;;;;;14.20;13.00;;;24.20;87.90;;;;;;5113684;27;20460;-62
2021/07/25 06:14:03;;;;;;;15.20;13.80;;;24.40;88.00;;;;;;5114451;27;20468;-62
2021/07/25 06:16:30;;;;;;;14.90;13.40;;;24.40;87.30;;;;;;5113878;27;20858;-62
2021/07/25 06:18:57;;;;;;;15.00;13.50;;;24.60;87.50;;;;;;5114142;27;20465;-62
2021/07/25 06:21:26;;;;;;;15.10;13.60;;;24.70;87.20;;;;;;5114130;27;20852;-61
2021/07/25 06:23:55;;;;;;;15.70;14.27;;;24.90;86.80;;;;;;5112658;27;20456;-62
2021/07/25 06:26:22;;;;;;;14.73;13.43;;;25.00;86.10;;;;;;5113856;27;20799;-62
2021/07/25 06:28:49;;;;;;;14.00;12.40;;;25.10;85.80;;;;;;5113603;27;20509;-62
2021/07/25 06:31:17;;;;;;;15.97;12.57;;;25.30;85.80;;;;;;5113902;27;20472;-59
2021/07/25 06:33:43;;;;;;;15.13;13.80;;;25.40;85.10;;;;;;5113297;27;20514;-62
2021/07/25 06:36:11;;;;;;;14.57;13.43;;;25.40;84.50;;;;;;5114105;27;20973;-62
2021/07/25 06:38:39;;;;;;;13.87;12.67;;;25.60;84.70;;;;;;5113190;27;20498;-59
2021/07/25 06:41:07;;;;;;;14.57;13.40;;;25.70;84.10;;;;;;5113881;27;20878;-62
2021/07/25 06:43:35;;;;;;;13.33;12.33;;;25.90;83.70;;;;;;5113405;27;20518;-60
2021/07/25 06:46:02;;;;;;;13.90;12.63;;;26.10;83.60;;;;;;5113359;27;20461;-60
2021/07/25 06:48:32;;;;;;;16.37;14.97;;;26.30;83.10;;;;;;5113594;27;20514;-60
2021/07/25 06:51:00;;;;;;;15.10;13.80;;;26.50;82.40;;;;;;5113398;27;20914;-62
2021/07/25 06:53:29;;;;;;;14.57;13.37;;;26.60;81.50;;;;;;5113301;27;20461;-61
2021/07/25 06:55:57;;;;;;;15.30;13.90;;;26.70;80.90;;;;;;5113161;27;20535;-60
2021/07/25 06:58:25;;;;;;;14.43;13.10;;;26.90;80.60;;;;;;5113386;27;20473;-60
2021/07/25 07:00:52;;;;;;;14.93;13.50;;;27.00;79.50;;;;;;5112842;27;20950;-61
2021/07/25 07:03:20;;;;;;;14.53;13.20;;;27.20;79.00;;;;;;5113428;27;20468;-62
2021/07/25 07:05:48;;;;;;;14.30;13.10;;;27.20;78.50;;;;;;5113035;27;20536;-60
2021/07/25 07:08:15;;;;;;;13.50;12.30;;;27.30;78.60;;;;;;5113208;27;20844;-61
2021/07/25 07:10:44;;;;;;;14.83;13.33;;;27.30;77.90;;;;;;5113099;27;20460;-61
2021/07/25 07:13:12;;;;;;;13.53;12.43;;;27.30;78.20;;;;;;5113244;27;20472;-61
2021/07/25 07:15:42;;;;;;;15.83;14.50;;;27.40;78.00;;;;;;5112942;27;20464;-60
2021/07/25 07:18:10;;;;;;;14.60;13.20;;;27.40;77.80;;;;;;5113101;27;20504;-61
2021/07/25 07:20:37;;;;;;;16.33;14.73;;;27.50;77.70;;;;;;5112855;27;20468;-60
2021/07/25 07:23:08;;;;;;;14.90;13.60;;;27.50;77.40;;;;;;5113096;27;20533;-60
2021/07/25 07:25:38;;;;;;;14.07;12.87;;;27.50;76.90;;;;;;5113099;27;20840;-60
2021/07/25 07:28:06;;;;;;;14.00;12.70;;;27.60;77.60;;;;;;5112852;27;20464;-60
2021/07/25 07:30:33;;;;;;;14.90;13.60;;;27.70;77.60;;;;;;5112812;27;20526;-61
2021/07/25 07:33:08;;;;;;;14.90;13.30;;;27.80;76.50;;;;;;5112621;27;20464;-61
2021/07/25 07:35:36;;;;;;;13.87;12.67;;;27.90;76.20;;;;;;5116458;27;20464;-61
2021/07/25 07:38:03;;;;;;;14.47;12.50;;;28.00;75.80;;;;;;5116456;27;20460;-61
2021/07/25 07:40:30;;;;;;;15.33;13.80;;;28.10;76.00;;;;;;5117238;27;20872;-61
2021/07/25 07:42:57;;;;;;;14.77;13.57;;;28.20;76.10;;;;;;5116757;27;20468;-62
2021/07/25 07:45:25;;;;;;;13.30;12.13;;;28.20;75.60;;;;;;5117094;27;20464;-61
2021/07/25 07:47:52;;;;;;;15.40;14.10;;;28.30;75.10;;;;;;5116387;27;20498;-61
2021/07/25 07:50:21;;;;;;;13.93;12.63;;;28.30;75.10;;;;;;5116908;27;20517;-61
2021/07/25 07:52:48;;;;;;;13.63;12.43;;;28.30;74.70;;;;;;5116115;27;20457;-60
2021/07/25 07:55:16;;;;;;;14.63;13.40;;;28.40;74.20;;;;;;5116869;27;20468;-61
2021/07/25 07:57:43;;;;;;;13.67;12.40;;;28.40;74.10;;;;;;5116368;27;20468;-60
2021/07/25 08:00:11;;;;;;;12.83;11.77;;;28.40;74.60;;;;;;5116513;27;20525;-60
2021/07/25 08:02:38;;;;;;;12.77;11.77;;;28.50;74.50;;;;;;5116605;27;20464;-60
2021/07/25 08:05:06;;;;;;;13.93;12.77;;;28.50;73.70;;;;;;5116338;27;20946;-61
2021/07/25 08:07:35;;;;;;;13.40;12.20;;;28.50;73.60;;;;;;5116371;27;20978;-61
2021/07/25 08:10:02;;;;;;;14.53;13.27;;;28.60;73.40;;;;;;5116152;27;20476;-61
2021/07/25 08:12:29;;;;;;;14.90;13.60;;;28.70;73.30;;;;;;5116513;27;20480;-61
2021/07/25 08:14:56;;;;;;;13.90;12.60;;;28.70;72.60;;;;;;5116042;27;20521;-61
2021/07/25 08:17:23;;;;;;;11.70;10.80;;;28.70;72.80;;;;;;5116652;27;20817;-61
2021/07/25 08:19:50;;;;;;;13.43;12.27;;;28.80;73.20;;;;;;5115932;27;20973;-61
2021/07/25 08:22:17;;;;;;;13.23;12.13;;;28.90;72.70;;;;;;5116233;27;20468;-61
2021/07/25 08:24:45;;;;;;;14.10;12.80;;;29.00;73.60;;;;;;5116142;27;20472;-61
2021/07/25 08:27:12;;;;;;;14.60;13.30;;;29.20;73.10;;;;;;5115946;27;21307;-61
2021/07/25 08:29:41;;;;;;;13.53;12.43;;;29.30;72.40;;;;;;5116173;27;20525;-61
2021/07/25 08:32:10;;;;;;;15.13;13.83;;;29.40;73.70;;;;;;5115424;27;20453;-61
2021/07/25 08:34:37;;;;;;;14.30;13.20;;;29.30;71.80;;;;;;5116175;27;20924;-61
2021/07/25 08:37:05;;;;;;;14.60;13.33;;;29.30;71.90;;;;;;5115485;27;20521;-61
2021/07/25 08:39:32;;;;;;;12.70;11.73;;;29.30;72.80;;;;;;5115974;27;20833;-61
2021/07/25 08:42:05;;;;;;;14.40;13.00;;;29.40;72.80;;;;;;5115452;27;20472;-61
2021/07/25 08:44:45;;;;;;;14.97;13.67;;;29.50;72.70;;;;;;5116036;27;20472;-60
2021/07/25 08:47:26;;;;;;;15.07;13.80;;;29.50;72.50;;;;;;5114200;27;20468;-60
2021/07/25 08:49:55;;;;;;;14.00;12.87;;;29.60;72.10;;;;;;5115354;27;20525;-61
2021/07/25 08:52:24;;;;;;;14.03;12.80;;;29.70;71.90;;;;;;5115429;27;20527;-61
2021/07/25 08:54:51;;;;;;;14.63;13.30;;;29.80;71.90;;;;;;5115108;27;20464;-61
2021/07/25 08:57:21;;;;;;;13.87;12.70;;;29.80;72.10;;;;;;5115468;27;20452;-61
2021/07/25 08:59:50;;;;;;;15.30;14.00;;;29.80;72.50;;;;;;5115670;27;20533;-61
2021/07/25 09:02:20;;;;;;;14.27;12.97;;;29.80;72.40;;;;;;5115307;27;20464;-62
2021/07/25 09:04:48;;;;;;;14.63;13.23;;;29.80;71.70;;;;;;5115402;27;20464;-61
2021/07/25 09:07:16;;;;;;;15.00;13.80;;;29.80;71.90;;;;;;5115211;27;20460;-61
2021/07/25 09:09:44;;;;;;;14.33;13.03;;;29.70;72.30;;;;;;5115271;27;20798;-61
2021/07/25 09:12:13;;;;;;;16.70;15.30;;;29.70;72.30;;;;;;5114814;27;20541;-61
2021/07/25 09:14:44;;;;;;;15.87;14.50;;;29.70;72.30;;;;;;5115457;27;20774;-63
2021/07/25 09:17:12;;;;;;;14.50;13.40;;;29.70;72.70;;;;;;5114885;27;20468;-60
2021/07/25 09:20:13;;;;;;;14.43;13.10;;;29.60;73.20;;;;;;5115232;27;20513;-61
2021/07/25 09:23:04;;;;;;;16.23;14.63;;;29.60;73.30;;;;;;5115043;27;20929;-61
2021/07/25 09:25:35;;;;;;;14.53;13.07;;;29.60;74.30;;;;;;5115106;27;20468;-61
2021/07/25 09:28:17;;;;;;;15.03;13.73;;;29.60;73.90;;;;;;5114683;27;20542;-62
2021/07/25 09:30:45;;;;;;;13.63;12.43;;;29.50;74.00;;;;;;5114714;27;20457;-61
2021/07/25 09:33:23;;;;;;;15.27;14.03;;;29.50;73.80;;;;;;5114926;27;20529;-61
2021/07/25 09:35:50;;;;;;;14.83;13.53;;;29.50;73.80;;;;;;5114576;27;20502;-61
2021/07/25 09:38:18;;;;;;;14.60;13.50;;;29.60;74.00;;;;;;5114626;27;20868;-61
2021/07/25 09:40:47;;;;;;;14.53;13.20;;;29.50;73.80;;;;;;5114401;27;20543;-61
2021/07/25 09:43:16;;;;;;;14.87;13.50;;;29.60;73.60;;;;;;5115027;27;20600;-61
2021/07/25 09:45:58;;;;;;;16.10;13.03;;;29.70;73.50;;;;;;5114237;27;20493;-60
2021/07/25 09:48:27;;;;;;;14.43;13.17;;;29.70;73.00;;;;;;5114397;27;20525;-61
2021/07/25 09:50:58;;;;;;;14.50;13.20;;;29.80;73.30;;;;;;5114131;27;20464;-61
2021/07/25 09:53:25;;;;;;;14.20;12.80;;;29.80;73.00;;;;;;5114614;27;20648;-61
2021/07/25 09:55:53;;;;;;;13.73;12.50;;;29.80;71.20;;;;;;5113982;27;20464;-60
2021/07/25 09:58:34;;;;;;;14.10;12.70;;;29.70;71.30;;;;;;5114273;27;20555;-61
2021/07/25 10:01:03;;;;;;;13.77;12.47;;;29.70;71.50;;;;;;5114180;27;20518;-61
2021/07/25 10:03:33;;;;;;;13.53;12.43;;;29.70;71.70;;;;;;5114359;27;20461;-60
2021/07/25 10:06:01;;;;;;;13.50;12.30;;;29.80;71.70;;;;;;5113750;27;20460;-61
2021/07/25 10:08:28;;;;;;;13.30;12.10;;;29.80;71.70;;;;;;5114197;27;20469;-61
2021/07/25 10:10:57;;;;;;;13.60;12.50;;;29.90;71.30;;;;;;5113789;27;20858;-63
2021/07/25 10:13:25;;;;;;;13.23;12.03;;;29.90;71.10;;;;;;5114297;27;20480;-61
2021/07/25 10:15:55;;;;;;;14.60;12.43;;;29.90;70.90;;;;;;5113741;27;20464;-61
2021/07/25 10:18:24;;;;;;;12.90;11.80;;;30.00;70.80;;;;;;5113960;27;20464;-61
2021/07/25 10:20:55;;;;;;;13.47;12.33;;;30.00;70.70;;;;;;5113637;27;20537;-61
2021/07/25 10:23:27;;;;;;;14.57;13.33;;;30.10;70.80;;;;;;5113983;27;20461;-62
2021/07/25 10:25:56;;;;;;;13.37;12.27;;;30.00;70.70;;;;;;5113693;27;20658;-61
2021/07/25 10:28:23;;;;;;;12.93;11.90;;;30.10;71.40;;;;;;5113668;27;20847;-61
2021/07/25 10:30:51;;;;;;;14.23;12.80;;;30.10;70.90;;;;;;5113368;27;20484;-60
2021/07/25 10:33:18;;;;;;;13.53;12.20;;;30.00;70.60;;;;;;5113923;27;20479;-61
2021/07/25 10:35:47;;;;;;;14.33;13.13;;;30.00;70.70;;;;;;5113286;27;20468;-61
2021/07/25 10:38:14;;;;;;;12.57;11.67;;;30.10;70.60;;;;;;5113483;27;20529;-61
2021/07/25 10:40:41;;;;;;;13.53;12.23;;;30.10;70.20;;;;;;5113833;27;20468;-61
2021/07/25 10:43:08;;;;;;;14.83;12.93;;;30.10;70.60;;;;;;5113284;27;20844;-61
2021/07/25 10:45:36;;;;;;;13.40;12.13;;;30.10;70.80;;;;;;5113503;27;20468;-61
2021/07/25 10:48:16;;;;;;;14.77;13.53;;;30.20;71.00;;;;;;5113065;27;20555;-61
2021/07/25 10:50:44;;;;;;;14.57;13.10;;;30.20;71.20;;;;;;5113457;27;21003;-61
2021/07/25 10:53:24;;;;;;;14.43;13.30;;;30.20;70.80;;;;;;5113046;27;21564;-61
2021/07/25 10:55:52;;;;;;;15.47;14.03;;;30.20;70.50;;;;;;5112876;27;20468;-61
2021/07/25 10:58:21;;;;;;;14.00;12.80;;;30.30;70.70;;;;;;5113534;27;20539;-61
2021/07/25 11:00:51;;;;;;;14.67;13.57;;;30.20;70.90;;;;;;5112995;27;20513;-60
2021/07/25 11:03:40;;;;;;;14.30;13.20;;;30.30;71.00;;;;;;5113426;27;20474;-61
2021/07/25 11:06:23;;;;;;;13.97;12.87;;;30.40;70.80;;;;;;5113103;27;20471;-60
2021/07/25 11:08:51;;;;;;;13.40;12.40;;;30.30;70.80;;;;;;5112325;27;20464;-61
2021/07/25 11:11:55;;;;;;;14.67;13.53;;;30.40;71.20;;;;;;5113502;27;20468;-61
2021/07/25 11:14:58;;;;;;;14.43;13.03;;;30.30;71.30;;;;;;5112846;27;20551;-61
2021/07/25 11:17:52;;;;;;;15.20;13.90;;;30.30;71.30;;;;;;5112920;27;21807;-61
2021/07/25 11:20:39;;;;;;;13.60;12.50;;;30.30;71.40;;;;;;5112762;27;20900;-62
2021/07/25 11:23:10;;;;;;;14.00;12.70;;;30.30;71.30;;;;;;5112763;27;20776;-60
2021/07/25 11:25:40;;;;;;;14.07;12.87;;;30.20;71.10;;;;;;5113098;27;20459;-62
2021/07/25 11:28:09;;;;;;;18.57;14.50;;;30.20;71.40;;;;;;5112795;27;20461;-60
2021/07/25 11:31:10;;;;;;;13.47;12.43;;;30.20;71.50;;;;;;5124777;27;20453;-59
2021/07/25 11:33:53;;;;;;;14.23;13.13;;;30.20;71.40;;;;;;5093032;28;20525;-59
2021/07/25 11:36:22;;;;;;;14.17;12.90;;;30.10;70.40;;;;;;5092291;28;20461;-59
2021/07/25 11:38:53;;;;;;;14.80;13.37;;;30.10;70.40;;;;;;5091463;28;20458;-59
2021/07/25 11:41:24;;;;;;;13.80;12.50;;;30.10;70.80;;;;;;5091768;28;20484;-60
2021/07/25 11:43:53;;;;;;;13.17;12.03;;;30.20;70.90;;;;;;5091424;28;20515;-61
2021/07/25 11:46:24;;;;;;;17.83;12.97;;;30.30;71.30;;;;;;5091491;28;20869;-60
2021/07/25 11:49:16;;;;;;;12.33;11.00;;;30.40;72.00;;;;;;5091164;28;21224;-60
2021/07/25 11:51:51;;;;;;;13.73;12.43;;;30.40;69.60;;;;;;5091914;28;20469;-60
2021/07/25 11:54:23;;;;;;;13.63;12.47;;;30.60;69.80;;;;;;5092402;28;20855;-61
2021/07/25 11:57:06;;;;;;;13.77;12.50;;;30.70;69.50;;;;;;5092096;28;20530;-60
2021/07/25 11:59:35;;;;;;;12.87;11.80;;;30.80;69.40;;;;;;5092046;28;20804;-61
2021/07/25 12:02:03;;;;;;;14.80;11.83;;;30.80;68.90;;;;;;5092438;28;20473;-60
2021/07/25 12:04:33;;;;;;;13.50;12.50;;;30.90;69.00;;;;;;5092073;28;20821;-60
2021/07/25 12:07:02;;;;;;;13.70;12.70;;;30.90;68.30;;;;;;5092438;28;20489;-60
2021/07/25 12:09:29;;;;;;;15.50;13.20;;;31.00;68.10;;;;;;5091971;28;20465;-59
2021/07/25 12:12:12;;;;;;;14.40;13.13;;;31.00;68.30;;;;;;5092443;28;20906;-60
2021/07/25 12:14:42;;;;;;;14.77;13.37;;;31.00;68.40;;;;;;5091877;28;20477;-60
2021/07/25 12:17:10;;;;;;;13.90;12.70;;;31.00;68.30;;;;;;5092452;28;20462;-60
2021/07/25 12:19:42;;;;;;;20.07;14.20;;;30.90;68.10;;;;;;5091747;28;20469;-62
2021/07/25 12:22:17;;;;;;;14.20;12.73;;;30.80;68.50;;;;;;5110967;27;20521;-62
2021/07/25 12:24:46;;;;;;;14.07;12.70;;;30.90;68.40;;;;;;5107173;27;20472;-61
2021/07/25 12:27:32;;;;;;;12.83;11.73;;;30.90;68.60;;;;;;5115139;27;20469;-61
2021/07/25 12:30:11;;;;;;;15.33;13.77;;;30.90;68.10;;;;;;5115206;27;20452;-61
2021/07/25 12:32:38;;;;;;;14.70;13.50;;;31.00;68.20;;;;;;5115511;27;20546;-61
2021/07/25 12:35:22;;;;;;;15.53;14.13;;;31.10;68.00;;;;;;5116190;27;20468;-61
2021/07/25 12:37:51;;;;;;;13.77;12.60;;;31.10;67.80;;;;;;5115399;27;20476;-61
2021/07/25 12:40:19;;;;;;;14.10;12.70;;;31.10;67.30;;;;;;5116184;27;20473;-62